createdAt,value
2022-12-25T00:01:25.463Z,7.70
2022-12-25T00:03:52.939Z,9.30
2022-12-25T00:06:19.922Z,8.00
2022-12-25T00:08:46.762Z,7.57
2022-12-25T00:11:15.998Z,8.90
2022-12-25T00:13:43.025Z,7.87
2022-12-25T00:16:19.104Z,7.50
2022-12-25T00:18:46.311Z,8.00
2022-12-25T00:21:13.322Z,7.33
2022-12-25T00:23:40.329Z,8.90
2022-12-25T00:26:09.188Z,7.60
2022-12-25T00:28:36.111Z,8.53
2022-12-25T00:31:11.834Z,7.70
2022-12-25T00:33:40.423Z,8.20
2022-12-25T00:36:08.125Z,7.43
2022-12-25T00:38:36.242Z,8.20
2022-12-25T00:41:11.088Z,7.60
2022-12-25T00:43:38.593Z,8.67
2022-12-25T00:46:06.534Z,8.30
2022-12-25T00:48:33.936Z,7.93
2022-12-25T00:51:03.592Z,8.97
2022-12-25T00:53:30.929Z,8.50
2022-12-25T00:56:03.369Z,8.40
2022-12-25T00:58:31.959Z,8.63
2022-12-25T01:00:58.643Z,8.77
2022-12-25T01:03:25.711Z,9.17
2022-12-25T01:06:04.414Z,8.50
2022-12-25T01:08:35.659Z,8.40
2022-12-25T01:11:04.643Z,7.83
2022-12-25T01:13:32.910Z,8.50
2022-12-25T01:15:59.505Z,9.27
2022-12-25T01:18:26.797Z,9.87
2022-12-25T01:20:53.420Z,9.10
2022-12-25T01:23:19.982Z,8.20
2022-12-25T01:25:46.601Z,8.73
2022-12-25T01:28:13.472Z,7.90
2022-12-25T01:30:40.488Z,7.70
2022-12-25T01:33:07.115Z,8.80
2022-12-25T01:35:33.747Z,8.70
2022-12-25T01:38:00.500Z,9.03
2022-12-25T01:40:27.284Z,8.20
2022-12-25T01:42:53.902Z,9.17
2022-12-25T01:45:41.448Z,8.47
2022-12-25T01:48:12.365Z,8.93
2022-12-25T01:50:41.305Z,8.00
2022-12-25T01:53:08.227Z,7.80
2022-12-25T01:55:36.461Z,8.30
2022-12-25T01:58:03.674Z,8.03
2022-12-25T02:00:30.318Z,7.87
2022-12-25T02:02:57.743Z,8.00
2022-12-25T02:05:31.051Z,7.97
2022-12-25T02:08:24.063Z,7.77
2022-12-25T02:10:50.655Z,7.70
2022-12-25T02:13:18.963Z,8.10
2022-12-25T02:15:54.291Z,8.10
2022-12-25T02:18:41.084Z,8.63
2022-12-25T02:21:29.147Z,8.67
2022-12-25T02:24:10.968Z,8.53
2022-12-25T02:26:57.740Z,7.47
2022-12-25T02:29:59.953Z,7.50
2022-12-25T02:32:26.554Z,8.43
2022-12-25T02:35:03.352Z,8.57
2022-12-25T02:37:40.062Z,8.17
2022-12-25T02:40:22.750Z,7.70
2022-12-25T02:43:20.658Z,7.90
2022-12-25T02:46:12.383Z,8.47
2022-12-25T02:49:02.752Z,8.20
2022-12-25T02:51:50.428Z,8.27
2022-12-25T02:54:37.648Z,7.50
2022-12-25T02:57:25.979Z,7.87
2022-12-25T03:00:13.408Z,8.00
2022-12-25T03:03:00.692Z,7.90
2022-12-25T03:05:46.496Z,7.27
2022-12-25T03:08:21.559Z,7.70
2022-12-25T03:11:15.908Z,7.80
2022-12-25T03:13:43.507Z,7.00
2022-12-25T03:16:28.906Z,8.17
2022-12-25T03:18:57.540Z,7.10
2022-12-25T03:21:42.790Z,6.50
2022-12-25T03:24:27.996Z,7.30
2022-12-25T03:26:57.355Z,7.37
2022-12-25T03:29:49.027Z,7.30
2022-12-25T03:32:43.420Z,7.27
2022-12-25T03:35:23.163Z,6.70
2022-12-25T03:38:44.748Z,8.13
2022-12-25T03:41:55.598Z,7.20
2022-12-25T03:44:46.625Z,8.20
2022-12-25T03:47:39.530Z,7.37
2022-12-25T03:50:34.063Z,7.60
2022-12-25T03:53:22.372Z,7.10
2022-12-25T03:56:09.595Z,7.10
2022-12-25T03:58:54.811Z,7.13
2022-12-25T04:01:40.107Z,7.80
2022-12-25T04:04:25.549Z,7.70
2022-12-25T04:07:10.764Z,7.27
2022-12-25T04:09:56.035Z,6.60
2022-12-25T04:12:41.349Z,7.00
2022-12-25T04:15:27.549Z,7.40
2022-12-25T04:18:12.834Z,8.10
2022-12-25T04:20:58.256Z,6.97
2022-12-25T04:23:43.369Z,6.77
2022-12-25T04:26:28.619Z,6.43
2022-12-25T04:29:13.832Z,7.37
2022-12-25T04:31:59.247Z,7.00
2022-12-25T04:34:44.539Z,6.43
2022-12-25T04:37:11.190Z,7.13
2022-12-25T04:39:40.617Z,6.30
2022-12-25T04:42:07.225Z,6.80
2022-12-25T04:44:33.992Z,6.10
2022-12-25T04:47:03.567Z,6.27
2022-12-25T04:49:34.160Z,6.70
2022-12-25T04:52:00.778Z,6.57
2022-12-25T04:54:27.331Z,6.60
2022-12-25T04:56:53.941Z,7.00
2022-12-25T04:59:20.547Z,6.77
2022-12-25T05:01:47.375Z,7.03
2022-12-25T05:04:14.009Z,6.30
2022-12-25T05:06:40.719Z,6.13
2022-12-25T05:09:07.300Z,5.80
2022-12-25T05:11:34.045Z,5.40
2022-12-25T05:14:00.577Z,5.10
2022-12-25T05:16:27.412Z,6.33
2022-12-25T05:18:54.069Z,6.03
2022-12-25T05:21:20.790Z,6.07
2022-12-25T05:23:51.385Z,6.00
2022-12-25T05:26:22.450Z,5.77
2022-12-25T05:28:49.560Z,6.20
2022-12-25T05:31:16.484Z,5.57
2022-12-25T05:33:43.102Z,6.00
2022-12-25T05:36:11.410Z,5.80
2022-12-25T05:38:38.556Z,6.50
2022-12-25T05:41:05.395Z,5.50
2022-12-25T05:43:31.981Z,5.53
2022-12-25T05:45:58.651Z,5.17
2022-12-25T05:48:25.267Z,6.17
2022-12-25T05:50:51.870Z,5.40
2022-12-25T05:53:18.460Z,5.17
2022-12-25T05:55:45.111Z,5.50
2022-12-25T05:58:12.825Z,6.20
2022-12-25T06:00:39.857Z,5.70
2022-12-25T06:03:06.731Z,6.67
2022-12-25T06:05:33.418Z,5.20
2022-12-25T06:07:59.997Z,6.17
2022-12-25T06:10:26.676Z,6.30
2022-12-25T06:12:53.278Z,6.60
2022-12-25T06:15:19.905Z,5.90
2022-12-25T06:17:46.585Z,6.60
2022-12-25T06:20:13.252Z,6.10
2022-12-25T06:22:40.094Z,6.13
2022-12-25T06:25:08.443Z,5.97
2022-12-25T06:27:35.092Z,6.23
2022-12-25T06:30:01.800Z,6.07
2022-12-25T06:32:28.414Z,6.10
2022-12-25T06:34:55.034Z,5.70
2022-12-25T06:37:21.669Z,6.00
2022-12-25T06:39:48.265Z,6.10
2022-12-25T06:42:14.967Z,6.17
2022-12-25T06:44:41.578Z,6.63
2022-12-25T06:47:08.157Z,6.00
2022-12-25T06:49:34.748Z,6.10
2022-12-25T06:52:01.385Z,5.83
2022-12-25T06:54:28.091Z,6.20
2022-12-25T06:56:54.759Z,5.43
2022-12-25T06:59:21.724Z,5.80
2022-12-25T07:01:49.648Z,5.67
2022-12-25T07:04:22.240Z,6.00
2022-12-25T07:06:48.810Z,6.30
2022-12-25T07:09:15.423Z,6.43
2022-12-25T07:11:42.147Z,6.73
2022-12-25T07:14:23.387Z,5.80
2022-12-25T07:16:50.733Z,6.50
2022-12-25T07:19:17.462Z,6.50
2022-12-25T07:21:44.035Z,6.47
2022-12-25T07:24:11.287Z,6.40
2022-12-25T07:26:37.843Z,5.90
2022-12-25T07:29:05.575Z,6.00
2022-12-25T07:31:32.275Z,6.50
2022-12-25T07:33:58.931Z,6.20
2022-12-25T07:36:25.610Z,6.57
2022-12-25T07:38:52.292Z,5.93
2022-12-25T07:41:18.938Z,6.00
2022-12-25T07:43:45.559Z,6.13
2022-12-25T07:46:12.246Z,6.10
2022-12-25T07:48:38.933Z,5.70
2022-12-25T07:51:08.140Z,6.20
2022-12-25T07:53:35.251Z,4.97
2022-12-25T07:56:07.022Z,5.47
2022-12-25T07:58:34.436Z,5.93
2022-12-25T08:01:13.666Z,6.10
2022-12-25T08:03:40.588Z,6.30
2022-12-25T08:06:09.541Z,6.23
2022-12-25T08:08:37.056Z,6.33
2022-12-25T08:11:04.322Z,6.97
2022-12-25T08:13:31.940Z,7.27
2022-12-25T08:16:02.825Z,7.07
2022-12-25T08:18:30.593Z,7.00
2022-12-25T08:21:00.381Z,7.23
2022-12-25T08:23:26.996Z,7.17
2022-12-25T08:25:56.600Z,6.77
2022-12-25T08:28:25.430Z,6.73
2022-12-25T08:30:52.086Z,6.80
2022-12-25T08:33:18.701Z,6.93
2022-12-25T08:35:45.376Z,5.90
2022-12-25T08:38:11.910Z,6.80
2022-12-25T08:40:38.490Z,7.77
2022-12-25T08:43:05.099Z,6.50
2022-12-25T08:45:35.240Z,5.93
2022-12-25T08:48:02.175Z,7.20
2022-12-25T08:50:28.803Z,6.40
2022-12-25T08:52:55.443Z,6.30
2022-12-25T08:55:22.225Z,7.00
2022-12-25T08:57:48.792Z,6.77
2022-12-25T09:00:15.825Z,6.17
2022-12-25T09:02:42.514Z,6.07
2022-12-25T09:05:09.415Z,6.70
2022-12-25T09:07:36.005Z,6.80
2022-12-25T09:10:02.707Z,6.50
2022-12-25T09:12:29.302Z,6.90
2022-12-25T09:14:55.892Z,7.20
2022-12-25T09:17:22.597Z,6.23
2022-12-25T09:19:49.211Z,7.80
2022-12-25T09:22:15.788Z,6.00
2022-12-25T09:24:43.701Z,6.60
2022-12-25T09:27:10.499Z,6.83
2022-12-25T09:29:38.970Z,6.10
2022-12-25T09:32:06.900Z,7.43
2022-12-25T09:34:33.603Z,7.53
2022-12-25T09:37:00.182Z,6.47
2022-12-25T09:39:26.994Z,7.30
2022-12-25T09:42:04.529Z,7.77
2022-12-25T09:44:35.117Z,6.40
2022-12-25T09:47:05.934Z,6.80
2022-12-25T09:49:56.980Z,6.50
2022-12-25T09:52:37.909Z,6.80
2022-12-25T09:55:22.287Z,6.57
2022-12-25T09:57:56.338Z,6.53
2022-12-25T10:00:25.799Z,6.80
2022-12-25T10:03:11.029Z,6.80
2022-12-25T10:05:58.929Z,6.70
2022-12-25T10:08:51.475Z,7.17
2022-12-25T10:11:26.875Z,6.90
2022-12-25T10:14:18.939Z,6.27
2022-12-25T10:16:57.169Z,6.57
2022-12-25T10:19:35.384Z,6.77
2022-12-25T10:22:08.327Z,7.10
2022-12-25T10:24:38.711Z,6.70
2022-12-25T10:27:13.927Z,7.37
2022-12-25T10:29:41.649Z,10.73
2022-12-25T10:32:09.220Z,7.90
2022-12-25T10:34:37.488Z,7.30
2022-12-25T10:37:04.100Z,9.17
2022-12-25T10:39:30.758Z,8.17
2022-12-25T10:42:18.776Z,7.30
2022-12-25T10:44:59.909Z,7.33
2022-12-25T10:47:29.899Z,7.80
2022-12-25T10:49:57.089Z,7.87
2022-12-25T10:52:25.903Z,8.13
2022-12-25T10:54:52.760Z,7.47
2022-12-25T10:57:22.456Z,6.57
2022-12-25T10:59:57.089Z,6.50
2022-12-25T11:02:35.084Z,8.90
2022-12-25T11:05:10.652Z,7.80
2022-12-25T11:07:46.754Z,7.17
2022-12-25T11:10:16.414Z,6.30
2022-12-25T11:12:44.982Z,6.13
2022-12-25T11:15:32.500Z,5.73
2022-12-25T11:17:59.163Z,7.10
2022-12-25T11:20:26.079Z,6.50
2022-12-25T11:22:52.797Z,6.53
2022-12-25T11:25:27.716Z,6.80
2022-12-25T11:28:04.987Z,6.60
2022-12-25T11:30:33.478Z,7.60
2022-12-25T11:33:06.875Z,7.00
2022-12-25T11:35:50.348Z,6.93
2022-12-25T11:38:17.026Z,6.63
2022-12-25T11:40:55.965Z,7.40
2022-12-25T11:43:29.930Z,6.40
2022-12-25T11:46:06.724Z,6.30
2022-12-25T11:49:00.820Z,6.43
2022-12-25T11:51:32.399Z,6.73
2022-12-25T11:54:10.987Z,6.50
2022-12-25T11:56:37.932Z,7.47
2022-12-25T11:59:18.570Z,6.60
2022-12-25T12:01:48.228Z,6.57
2022-12-25T12:04:31.805Z,8.30
2022-12-25T12:07:05.347Z,7.87
2022-12-25T12:09:51.282Z,6.63
2022-12-25T12:12:58.870Z,6.90
2022-12-25T12:15:36.330Z,7.17
2022-12-25T12:18:22.420Z,6.83
2022-12-25T12:21:01.266Z,6.30
2022-12-25T12:23:29.577Z,5.60
2022-12-25T12:25:56.516Z,5.57
2022-12-25T12:28:26.650Z,5.87
2022-12-25T12:30:59.461Z,5.67
2022-12-25T12:33:29.710Z,5.07
2022-12-25T12:35:56.529Z,5.23
2022-12-25T12:38:23.436Z,5.77
2022-12-25T12:40:53.675Z,6.80
2022-12-25T12:43:23.311Z,5.07
2022-12-25T12:45:56.401Z,5.80
2022-12-25T12:48:26.450Z,5.47
2022-12-25T12:51:10.875Z,5.13
2022-12-25T12:53:42.752Z,5.20
2022-12-25T12:56:20.283Z,5.10
2022-12-25T12:58:50.779Z,5.70
2022-12-25T13:01:37.903Z,5.97
2022-12-25T13:04:04.505Z,5.10
2022-12-25T13:06:46.507Z,5.23
2022-12-25T13:09:22.274Z,4.90
2022-12-25T13:11:49.462Z,7.40
2022-12-25T13:14:19.599Z,7.77
2022-12-25T13:16:49.146Z,5.53
2022-12-25T13:19:24.961Z,5.50
2022-12-25T13:22:00.377Z,4.80
2022-12-25T13:24:32.614Z,5.20
2022-12-25T13:27:00.009Z,5.03
2022-12-25T13:29:33.639Z,5.10
2022-12-25T13:32:02.288Z,5.50
2022-12-25T13:34:33.010Z,4.77
2022-12-25T13:37:00.963Z,4.93
2022-12-25T13:39:28.531Z,5.20
2022-12-25T13:42:09.557Z,4.70
2022-12-25T13:44:52.271Z,4.80
2022-12-25T13:47:32.268Z,5.70
2022-12-25T13:50:01.768Z,5.67
2022-12-25T13:52:34.641Z,5.30
2022-12-25T13:55:12.287Z,5.03
2022-12-25T13:57:51.563Z,4.87
2022-12-25T14:00:32.385Z,5.20
2022-12-25T14:02:59.671Z,4.87
2022-12-25T14:05:28.503Z,4.80
2022-12-25T14:07:56.763Z,5.60
2022-12-25T14:10:25.489Z,5.43
2022-12-25T14:12:54.113Z,6.50
2022-12-25T14:15:22.568Z,6.03
2022-12-25T14:17:50.733Z,4.80
2022-12-25T14:20:27.514Z,5.43
2022-12-25T14:22:56.075Z,5.37
2022-12-25T14:25:41.936Z,5.37
2022-12-25T14:28:20.411Z,6.47
2022-12-25T14:30:47.454Z,7.20
2022-12-25T14:33:16.433Z,7.80
2022-12-25T14:35:43.432Z,8.57
2022-12-25T14:38:20.382Z,6.37
2022-12-25T14:40:47.045Z,6.10
2022-12-25T14:43:26.060Z,5.80
2022-12-25T14:45:57.667Z,5.90
2022-12-25T14:48:29.483Z,5.27
2022-12-25T14:51:02.240Z,6.20
2022-12-25T14:53:57.053Z,5.50
2022-12-25T14:56:25.786Z,6.23
2022-12-25T14:58:55.003Z,6.47
2022-12-25T15:01:36.528Z,5.73
2022-12-25T15:04:12.271Z,5.30
2022-12-25T15:06:40.585Z,5.90
2022-12-25T15:09:15.192Z,5.53
2022-12-25T15:11:41.776Z,5.30
2022-12-25T15:14:10.756Z,5.17
2022-12-25T15:16:41.898Z,4.63
2022-12-25T15:19:11.792Z,5.30
2022-12-25T15:21:41.138Z,5.60
2022-12-25T15:24:11.811Z,5.00
2022-12-25T15:26:38.705Z,5.10
2022-12-25T15:29:07.375Z,5.13
2022-12-25T15:31:36.106Z,5.83
2022-12-25T15:34:06.862Z,7.33
2022-12-25T15:36:34.208Z,7.07
2022-12-25T15:39:01.012Z,5.57
2022-12-25T15:41:47.293Z,5.37
2022-12-25T15:44:14.473Z,6.57
2022-12-25T15:46:41.717Z,5.27
2022-12-25T15:49:10.517Z,6.70
2022-12-25T15:51:37.223Z,9.10
2022-12-25T15:54:04.120Z,6.70
2022-12-25T15:56:51.236Z,6.70
2022-12-25T15:59:19.639Z,5.50
2022-12-25T16:01:49.299Z,5.13
2022-12-25T16:04:16.371Z,5.10
2022-12-25T16:06:43.141Z,5.40
2022-12-25T16:09:13.838Z,5.63
2022-12-25T16:11:40.912Z,6.17
2022-12-25T16:14:07.973Z,5.43
2022-12-25T16:16:34.718Z,5.20
2022-12-25T16:19:01.445Z,6.30
2022-12-25T16:21:36.468Z,5.40
2022-12-25T16:24:03.178Z,5.73
2022-12-25T16:26:30.635Z,5.80
2022-12-25T16:28:59.121Z,6.23
2022-12-25T16:31:27.841Z,6.57
2022-12-25T16:33:54.672Z,7.43
2022-12-25T16:36:26.795Z,6.67
2022-12-25T16:38:53.825Z,5.80
2022-12-25T16:41:20.503Z,6.50
2022-12-25T16:43:47.270Z,5.93
2022-12-25T16:46:17.393Z,8.17
2022-12-25T16:48:44.121Z,8.27
2022-12-25T16:51:16.691Z,7.40
2022-12-25T16:53:43.566Z,6.13
2022-12-25T16:56:14.795Z,6.70
2022-12-25T16:58:42.207Z,6.17
2022-12-25T17:01:11.359Z,7.10
2022-12-25T17:03:38.872Z,7.50
2022-12-25T17:06:23.152Z,6.60
2022-12-25T17:08:51.965Z,6.40
2022-12-25T17:11:23.609Z,6.67
2022-12-25T17:13:50.622Z,7.40
2022-12-25T17:16:19.832Z,7.10
2022-12-25T17:18:46.696Z,6.80
2022-12-25T17:21:15.904Z,7.97
2022-12-25T17:23:43.235Z,7.70
2022-12-25T17:26:09.864Z,7.03
2022-12-25T17:28:36.570Z,6.40
2022-12-25T17:31:08.407Z,7.20
2022-12-25T17:33:36.695Z,7.20
2022-12-25T17:36:05.380Z,6.80
2022-12-25T17:38:32.626Z,7.60
2022-12-25T17:41:00.484Z,7.40
2022-12-25T17:43:27.136Z,7.70
2022-12-25T17:45:53.788Z,7.27
2022-12-25T17:48:20.423Z,7.07
2022-12-25T17:50:47.656Z,8.53
2022-12-25T17:53:14.511Z,8.80
2022-12-25T17:55:41.329Z,9.53
2022-12-25T17:58:08.680Z,8.53
2022-12-25T18:00:36.067Z,8.80
2022-12-25T18:03:09.042Z,8.87
2022-12-25T18:05:38.013Z,8.23
2022-12-25T18:08:05.337Z,8.83
2022-12-25T18:10:38.548Z,8.50
2022-12-25T18:13:05.595Z,7.43
2022-12-25T18:15:32.483Z,9.57
2022-12-25T18:17:59.139Z,7.90
2022-12-25T18:20:25.780Z,10.90
2022-12-25T18:22:52.426Z,9.33
2022-12-25T18:25:19.103Z,8.43
2022-12-25T18:27:45.786Z,10.90
2022-12-25T18:30:14.932Z,9.53
2022-12-25T18:32:48.206Z,12.00
2022-12-25T18:35:19.193Z,9.90
2022-12-25T18:37:48.182Z,11.70
2022-12-25T18:40:14.954Z,10.60
2022-12-25T18:42:43.062Z,9.70
2022-12-25T18:45:12.639Z,10.13
2022-12-25T18:47:39.446Z,9.53
2022-12-25T18:50:07.399Z,9.40
2022-12-25T18:52:49.507Z,10.27
2022-12-25T18:55:18.048Z,10.10
2022-12-25T18:57:44.769Z,9.67
2022-12-25T19:00:11.761Z,9.53
2022-12-25T19:02:38.646Z,8.80
2022-12-25T19:05:06.039Z,8.47
2022-12-25T19:07:32.757Z,9.80
2022-12-25T19:09:59.349Z,9.80
2022-12-25T19:12:26.007Z,9.17
2022-12-25T19:14:53.009Z,11.90
2022-12-25T19:17:19.739Z,11.10
2022-12-25T19:19:46.505Z,9.03
2022-12-25T19:22:13.249Z,10.23
2022-12-25T19:24:39.989Z,10.10
2022-12-25T19:27:07.027Z,10.07
2022-12-25T19:29:34.093Z,9.07
2022-12-25T19:32:00.875Z,9.67
2022-12-25T19:34:32.091Z,8.70
2022-12-25T19:36:58.834Z,10.03
2022-12-25T19:39:25.421Z,9.10
2022-12-25T19:41:52.040Z,10.00
2022-12-25T19:44:19.467Z,10.00
2022-12-25T19:46:46.175Z,11.70
2022-12-25T19:49:13.678Z,13.90
2022-12-25T19:51:42.677Z,10.47
2022-12-25T19:54:14.653Z,15.10
2022-12-25T19:56:41.871Z,12.30
2022-12-25T19:59:08.975Z,10.33
2022-12-25T20:01:35.730Z,11.47
2022-12-25T20:04:02.489Z,11.00
2022-12-25T20:06:31.307Z,9.33
2022-12-25T20:09:04.314Z,11.87
2022-12-25T20:11:32.531Z,13.10
2022-12-25T20:13:59.476Z,12.50
2022-12-25T20:16:26.191Z,11.40
2022-12-25T20:18:55.115Z,10.20
2022-12-25T20:21:22.821Z,16.13
2022-12-25T20:23:51.934Z,16.00
2022-12-25T20:26:20.443Z,12.00
2022-12-25T20:28:47.298Z,12.80
2022-12-25T20:31:18.440Z,13.83
2022-12-25T20:33:45.058Z,12.70
2022-12-25T20:36:12.338Z,12.00
2022-12-25T20:38:39.305Z,11.70
2022-12-25T20:43:54.170Z,14.37
2022-12-25T20:46:22.315Z,14.57
2022-12-25T20:48:49.122Z,20.90
2022-12-25T20:51:18.364Z,12.27
2022-12-25T20:53:45.684Z,12.13
2022-12-25T20:56:13.740Z,12.80
2022-12-25T20:58:40.582Z,11.60
2022-12-25T21:01:10.254Z,11.23
2022-12-25T21:03:37.332Z,13.17
2022-12-25T21:06:04.235Z,11.70
2022-12-25T21:08:31.300Z,14.40
2022-12-25T21:11:01.843Z,12.70
2022-12-25T21:13:31.470Z,12.37
2022-12-25T21:15:58.827Z,11.93
2022-12-25T21:18:27.225Z,13.00
2022-12-25T21:20:58.618Z,13.23
2022-12-25T21:23:28.556Z,11.50
2022-12-25T21:25:55.206Z,15.00
2022-12-25T21:28:23.341Z,11.47
2022-12-25T21:30:50.252Z,11.57
2022-12-25T21:33:35.305Z,12.07
2022-12-25T21:36:11.018Z,12.00
2022-12-25T21:38:38.333Z,12.40
2022-12-25T21:41:06.963Z,12.50
2022-12-25T21:43:34.883Z,11.97
2022-12-25T21:46:09.418Z,11.70
2022-12-25T21:48:37.136Z,11.30
2022-12-25T21:51:25.059Z,12.47
2022-12-25T21:53:51.715Z,11.93
2022-12-25T21:56:18.495Z,11.87
2022-12-25T21:58:45.170Z,12.23
2022-12-25T22:01:11.980Z,11.87
2022-12-25T22:03:38.777Z,11.33
2022-12-25T22:06:24.590Z,10.80
2022-12-25T22:08:51.180Z,11.07
2022-12-25T22:11:36.333Z,11.30
2022-12-25T22:14:52.685Z,11.13
2022-12-25T22:17:28.248Z,11.40
2022-12-25T22:19:55.801Z,10.93
2022-12-25T22:22:28.363Z,10.77
2022-12-25T22:24:59.827Z,10.70
2022-12-25T22:27:31.028Z,10.13
2022-12-25T22:29:57.694Z,9.80
2022-12-25T22:32:26.565Z,9.50
2022-12-25T22:34:53.214Z,9.00
2022-12-25T22:37:19.854Z,8.83
2022-12-25T22:39:46.472Z,9.67
2022-12-25T22:42:13.666Z,9.37
2022-12-25T22:44:40.292Z,9.07
2022-12-25T22:47:06.913Z,9.57
2022-12-25T22:49:33.718Z,9.40
2022-12-25T22:52:00.516Z,8.83
2022-12-25T22:54:31.014Z,8.87
2022-12-25T22:56:58.091Z,8.80
2022-12-25T22:59:24.979Z,8.80
2022-12-25T23:01:51.868Z,9.00
2022-12-25T23:04:18.595Z,9.40
2022-12-25T23:06:46.457Z,8.27
2022-12-25T23:09:22.104Z,8.60
2022-12-25T23:11:50.976Z,7.93
2022-12-25T23:14:36.123Z,8.93
2022-12-25T23:17:03.370Z,8.87
2022-12-25T23:19:48.842Z,8.80
2022-12-25T23:22:34.242Z,9.67
2022-12-25T23:25:19.467Z,9.03
2022-12-25T23:27:46.068Z,9.40
2022-12-25T23:30:15.155Z,9.00
2022-12-25T23:32:42.695Z,9.00
2022-12-25T23:35:09.658Z,9.90
2022-12-25T23:37:36.222Z,9.90
2022-12-25T23:40:03.197Z,9.77
2022-12-25T23:42:29.910Z,9.40
2022-12-25T23:44:56.536Z,9.97
2022-12-25T23:47:23.243Z,9.50
2022-12-25T23:49:49.834Z,9.40
2022-12-25T23:52:16.430Z,9.13
2022-12-25T23:54:44.272Z,10.13
2022-12-25T23:57:11.977Z,9.73
2022-12-25T23:59:39.266Z,10.10
